createdAt,value
2023-02-08T00:01:25.619Z,97124.56
2023-02-08T00:04:05.696Z,97119.69
2023-02-08T00:06:59.618Z,97122.38
2023-02-08T00:09:53.637Z,97127.38
2023-02-08T00:12:47.619Z,97128.34
2023-02-08T00:15:41.663Z,97131.94
2023-02-08T00:18:36.621Z,97140.09
2023-02-08T00:21:24.615Z,97138.38
2023-02-08T00:24:04.640Z,97133.38
2023-02-08T00:26:58.631Z,97138.47
2023-02-08T00:29:45.651Z,97141.75
2023-02-08T00:32:21.717Z,97146.28
2023-02-08T00:35:08.618Z,97145.97
2023-02-08T00:37:41.718Z,97144.00
2023-02-08T00:40:28.626Z,97156.72
2023-02-08T00:43:09.669Z,97150.19
2023-02-08T00:46:14.627Z,97159.66
2023-02-08T00:49:01.633Z,97148.88
2023-02-08T00:51:34.827Z,97151.94
2023-02-08T00:54:23.607Z,97152.81
2023-02-08T00:57:03.643Z,97154.75
2023-02-08T00:59:50.629Z,97149.88
2023-02-08T01:02:23.743Z,97149.22
2023-02-08T01:05:10.706Z,97141.38
2023-02-08T01:07:44.730Z,97138.56
2023-02-08T01:10:31.648Z,97130.88
2023-02-08T01:13:07.787Z,97139.13
2023-02-08T01:15:54.669Z,97136.28
2023-02-08T01:18:30.727Z,97135.31
2023-02-08T01:21:20.664Z,97136.22
2023-02-08T01:24:01.645Z,97129.91
2023-02-08T01:26:55.633Z,97118.25
2023-02-08T01:29:49.696Z,97117.28
2023-02-08T01:32:43.641Z,97113.06
2023-02-08T01:35:30.700Z,97120.56
2023-02-08T01:38:10.640Z,97127.09
2023-02-08T01:40:57.642Z,97126.78
2023-02-08T01:43:43.643Z,97130.13
2023-02-08T01:46:37.731Z,97128.50
2023-02-08T01:49:40.660Z,97135.47
2023-02-08T01:52:38.636Z,97141.44
2023-02-08T01:55:49.676Z,97142.31
2023-02-08T01:58:40.724Z,97152.50
2023-02-08T02:01:14.759Z,97144.25
2023-02-08T02:04:01.756Z,97156.13
2023-02-08T02:06:46.699Z,97150.25
2023-02-08T02:10:03.663Z,97146.97
2023-02-08T02:12:51.648Z,97153.72
2023-02-08T02:15:25.757Z,97150.31
2023-02-08T02:18:14.642Z,97163.94
2023-02-08T02:21:08.058Z,97156.31
2023-02-08T02:23:57.667Z,97149.69
2023-02-08T02:27:05.664Z,97151.31
2023-02-08T02:30:02.659Z,97159.59
2023-02-08T02:33:06.654Z,97164.47
2023-02-08T02:36:13.648Z,97172.00
2023-02-08T02:39:45.675Z,97171.88
2023-02-08T02:42:52.673Z,97168.63
2023-02-08T02:45:53.747Z,97173.09
2023-02-08T02:48:49.662Z,97170.66
2023-02-08T02:51:57.942Z,97173.81
2023-02-08T02:54:52.671Z,97180.47
2023-02-08T02:57:32.789Z,97182.31
2023-02-08T03:00:27.674Z,97186.34
2023-02-08T03:03:00.815Z,97188.19
2023-02-08T03:05:47.726Z,97190.69
2023-02-08T03:08:46.731Z,97200.81
2023-02-08T03:11:44.774Z,97193.97
2023-02-08T03:14:59.708Z,97195.50
2023-02-08T03:18:19.705Z,97195.59
2023-02-08T03:21:24.674Z,97199.19
2023-02-08T03:24:15.811Z,97206.03
2023-02-08T03:27:15.679Z,97210.94
2023-02-08T03:30:10.931Z,97207.56
2023-02-08T03:33:05.692Z,97190.69
2023-02-08T03:35:48.806Z,97190.91
2023-02-08T03:38:49.690Z,97187.56
2023-02-08T03:41:36.719Z,97189.28
2023-02-08T03:44:38.756Z,97218.13
2023-02-08T03:47:31.695Z,97205.94
2023-02-08T03:50:09.796Z,97196.00
2023-02-08T03:53:05.703Z,97207.00
2023-02-08T03:56:03.677Z,97179.16
2023-02-08T03:59:00.699Z,97195.81
2023-02-08T04:01:39.829Z,97197.44
2023-02-08T04:04:27.713Z,97186.56
2023-02-08T04:07:01.805Z,97189.81
2023-02-08T04:09:48.675Z,97180.47
2023-02-08T04:12:24.814Z,97173.50
2023-02-08T04:15:11.696Z,97182.78
2023-02-08T04:17:51.701Z,97183.44
2023-02-08T04:20:38.930Z,97190.50
2023-02-08T04:23:19.746Z,97186.16
2023-02-08T04:26:06.705Z,97195.06
2023-02-08T04:28:39.850Z,97198.22
2023-02-08T04:31:26.890Z,97210.38
2023-02-08T04:33:59.802Z,97211.25
2023-02-08T04:36:46.823Z,97206.38
2023-02-08T04:39:19.817Z,97204.94
2023-02-08T04:42:06.704Z,97208.44
2023-02-08T04:44:46.725Z,97215.38
2023-02-08T04:47:33.715Z,97219.53
2023-02-08T04:50:06.854Z,97223.88
2023-02-08T04:53:00.716Z,97219.09
2023-02-08T04:55:47.744Z,97227.56
2023-02-08T04:58:27.733Z,97225.31
2023-02-08T05:01:22.751Z,97216.38
2023-02-08T05:04:09.736Z,97228.22
2023-02-08T05:06:49.737Z,97231.72
2023-02-08T05:09:36.722Z,97230.84
2023-02-08T05:12:09.850Z,97238.56
2023-02-08T05:14:56.707Z,97242.03
2023-02-08T05:17:36.701Z,97242.16
2023-02-08T05:20:23.706Z,97247.38
2023-02-08T05:22:56.815Z,97243.03
2023-02-08T05:25:45.716Z,97259.88
2023-02-08T05:28:18.918Z,97260.22
2023-02-08T05:31:05.834Z,97257.94
2023-02-08T05:33:38.860Z,97263.69
2023-02-08T05:36:26.726Z,97266.97
2023-02-08T05:39:06.713Z,97250.31
2023-02-08T05:42:00.764Z,97243.47
2023-02-08T05:44:47.719Z,97254.03
2023-02-08T05:47:20.814Z,97268.06
2023-02-08T05:50:07.705Z,97274.03
2023-02-08T05:52:40.816Z,97269.03
2023-02-08T05:55:27.732Z,97269.16
2023-02-08T05:58:00.840Z,97280.16
2023-02-08T06:00:47.751Z,97280.16
2023-02-08T06:03:20.898Z,97283.50
2023-02-08T06:06:07.701Z,97287.75
2023-02-08T06:08:47.727Z,97297.13
2023-02-08T06:11:34.711Z,97295.59
2023-02-08T06:14:14.761Z,97298.09
2023-02-08T06:17:08.738Z,97295.81
2023-02-08T06:19:55.721Z,97305.91
2023-02-08T06:22:28.832Z,97307.69
2023-02-08T06:25:15.743Z,97307.78
2023-02-08T06:27:57.431Z,97314.53
2023-02-08T06:30:45.734Z,97316.38
2023-02-08T06:33:18.881Z,97309.09
2023-02-08T06:36:05.756Z,97314.31
2023-02-08T06:38:38.820Z,97321.16
2023-02-08T06:41:25.740Z,97330.53
2023-02-08T06:44:00.546Z,97323.78
2023-02-08T06:46:40.755Z,97322.38
2023-02-08T06:49:20.878Z,97322.03
2023-02-08T06:52:00.736Z,97329.97
2023-02-08T06:54:40.850Z,97324.53
2023-02-08T06:57:20.742Z,97335.94
2023-02-08T07:00:00.849Z,97328.75
2023-02-08T07:02:40.815Z,97341.53
2023-02-08T07:05:20.831Z,97344.09
2023-02-08T07:08:00.778Z,97340.94
2023-02-08T07:10:41.065Z,97334.72
2023-02-08T07:13:20.759Z,97353.47
2023-02-08T07:16:00.850Z,97343.66
2023-02-08T07:18:41.726Z,97356.50
2023-02-08T07:21:21.963Z,97346.66
2023-02-08T07:24:01.735Z,97350.81
2023-02-08T07:26:41.769Z,97353.66
2023-02-08T07:29:14.844Z,97355.28
2023-02-08T07:32:01.797Z,97364.66
2023-02-08T07:34:43.796Z,97359.41
2023-02-08T07:37:30.742Z,97365.03
2023-02-08T07:40:10.763Z,97365.78
2023-02-08T07:42:57.764Z,97372.09
2023-02-08T07:45:38.162Z,97364.34
2023-02-08T07:48:31.759Z,97355.69
2023-02-08T07:51:19.739Z,97344.25
2023-02-08T07:53:52.919Z,97354.47
2023-02-08T07:56:39.769Z,97347.97
2023-02-08T07:59:19.782Z,97356.50
2023-02-08T08:02:06.837Z,97348.22
2023-02-08T08:04:39.964Z,97342.97
2023-02-08T08:07:26.792Z,97361.72
2023-02-08T08:09:59.958Z,97358.09
2023-02-08T08:12:46.766Z,97358.69
2023-02-08T08:15:19.905Z,97363.06
2023-02-08T08:18:06.774Z,97357.84
2023-02-08T08:20:41.134Z,97361.78
2023-02-08T08:23:30.825Z,97374.84
2023-02-08T08:26:10.835Z,97371.66
2023-02-08T08:28:57.847Z,97369.81
2023-02-08T08:31:37.880Z,97376.41
2023-02-08T08:34:36.781Z,97379.97
2023-02-08T08:37:30.807Z,97390.13
2023-02-08T08:40:25.279Z,97383.56
2023-02-08T08:43:11.788Z,97391.09
2023-02-08T08:45:44.937Z,97392.03
2023-02-08T08:48:31.797Z,97385.81
2023-02-08T08:51:04.937Z,97386.97
2023-02-08T08:53:58.771Z,97392.25
2023-02-08T08:56:45.799Z,97391.84
2023-02-08T08:59:25.780Z,97400.31
2023-02-08T09:02:12.810Z,97411.34
2023-02-08T09:04:45.957Z,97407.56
2023-02-08T09:07:32.788Z,97409.88
2023-02-08T09:10:12.794Z,97405.31
2023-02-08T09:12:59.811Z,97408.69
2023-02-08T09:15:39.801Z,97405.88
2023-02-08T09:18:26.809Z,97418.06
2023-02-08T09:21:06.781Z,97411.50
2023-02-08T09:24:00.777Z,97409.88
2023-02-08T09:26:47.780Z,97402.44
2023-02-08T09:29:20.934Z,97408.97
2023-02-08T09:32:10.867Z,97403.28
2023-02-08T09:34:43.875Z,97404.84
2023-02-08T09:37:30.829Z,97400.09
2023-02-08T09:40:03.879Z,97409.44
2023-02-08T09:43:10.798Z,97404.44
2023-02-08T09:46:20.856Z,97413.31
2023-02-08T09:49:18.831Z,97413.81
2023-02-08T09:52:10.788Z,97414.03
2023-02-08T09:54:49.898Z,97403.00
2023-02-08T09:57:41.821Z,97403.09
2023-02-08T10:00:22.921Z,97400.56
2023-02-08T10:03:09.837Z,97393.31
2023-02-08T10:05:42.910Z,97384.97
2023-02-08T10:08:35.241Z,97393.19
2023-02-08T10:11:35.806Z,97403.47
2023-02-08T10:14:46.828Z,97400.66
2023-02-08T10:17:58.150Z,97390.09
2023-02-08T10:21:16.825Z,97383.81
2023-02-08T10:24:40.826Z,97386.81
2023-02-08T10:27:59.874Z,97396.91
2023-02-08T10:31:03.410Z,97397.78
2023-02-08T10:33:55.905Z,97398.16
2023-02-08T10:36:40.825Z,97387.88
2023-02-08T10:39:38.832Z,97386.91
2023-02-08T10:42:26.818Z,97385.00
2023-02-08T10:45:33.859Z,97375.72
2023-02-08T10:48:11.961Z,97379.00
2023-02-08T10:50:58.819Z,97373.97
2023-02-08T10:53:38.804Z,97372.22
2023-02-08T10:56:42.826Z,97367.00
2023-02-08T10:59:36.824Z,97368.84
2023-02-08T11:02:38.825Z,97377.25
2023-02-08T11:05:44.920Z,97371.34
2023-02-08T11:08:41.811Z,97362.97
2023-02-08T11:11:28.831Z,97359.78
2023-02-08T11:14:46.845Z,97367.44
2023-02-08T11:17:37.816Z,97358.81
2023-02-08T11:20:17.827Z,97362.09
2023-02-08T11:23:05.819Z,97362.00
2023-02-08T11:25:49.843Z,97356.19
2023-02-08T11:28:44.832Z,97362.00
2023-02-08T11:31:31.954Z,97353.69
2023-02-08T11:34:14.310Z,97352.94
2023-02-08T11:37:37.726Z,97353.50
2023-02-08T11:40:40.722Z,97357.66
2023-02-08T11:43:34.732Z,97356.19
2023-02-08T11:46:17.777Z,97362.66
2023-02-08T11:49:04.725Z,97359.59
2023-02-08T11:51:41.845Z,97352.81
2023-02-08T11:54:40.739Z,97349.22
2023-02-08T11:57:33.883Z,97349.56
2023-02-08T12:00:29.749Z,97342.09
2023-02-08T12:03:31.167Z,97340.69
2023-02-08T12:06:32.780Z,97333.91
2023-02-08T12:09:20.745Z,97334.00
2023-02-08T12:12:25.761Z,97328.78
2023-02-08T12:15:04.856Z,97329.00
2023-02-08T12:18:09.824Z,97326.59
2023-02-08T12:20:47.058Z,97319.06
2023-02-08T12:23:36.747Z,97326.88
2023-02-08T12:26:29.873Z,97322.72
2023-02-08T12:29:38.401Z,97323.47
2023-02-08T12:32:56.777Z,97320.97
2023-02-08T12:36:03.718Z,97321.88
2023-02-08T12:39:31.753Z,97315.00
2023-02-08T12:42:04.850Z,97309.09
2023-02-08T12:44:57.766Z,97309.09
2023-02-08T12:48:12.738Z,97313.84
2023-02-08T12:51:12.767Z,97309.59
2023-02-08T12:54:04.738Z,97303.72
2023-02-08T12:57:02.843Z,97308.81
2023-02-08T12:59:54.819Z,97317.03
2023-02-08T13:02:44.342Z,97313.75
2023-02-08T13:05:36.762Z,97319.28
2023-02-08T13:08:45.780Z,97317.63
2023-02-08T13:11:53.783Z,97300.75
2023-02-08T13:14:52.745Z,97310.50
2023-02-08T13:17:36.781Z,97304.50
2023-02-08T13:20:36.773Z,97306.03
2023-02-08T13:23:50.642Z,97308.06
2023-02-08T13:26:39.989Z,97304.66
2023-02-08T13:29:28.130Z,97303.72
2023-02-08T13:32:11.771Z,97293.47
2023-02-08T13:34:50.852Z,97289.91
2023-02-08T13:37:41.788Z,97297.72
2023-02-08T13:40:29.886Z,97301.00
2023-02-08T13:43:34.675Z,97301.50
2023-02-08T13:46:16.783Z,97300.25
2023-02-08T13:49:11.802Z,97296.13
2023-02-08T13:52:08.829Z,97296.13
2023-02-08T13:55:33.930Z,97299.28
2023-02-08T13:58:35.777Z,97292.13
2023-02-08T14:01:25.799Z,97292.50
2023-02-08T14:04:37.067Z,97289.25
2023-02-08T14:07:52.800Z,97290.56
2023-02-08T14:10:37.349Z,97291.06
2023-02-08T14:13:35.774Z,97299.16
2023-02-08T14:16:40.827Z,97295.69
2023-02-08T14:19:37.834Z,97298.06
2023-02-08T14:22:25.792Z,97294.94
2023-02-08T14:25:12.868Z,97289.78
2023-02-08T14:28:04.802Z,97284.00
2023-02-08T14:30:46.823Z,97281.09
2023-02-08T14:33:45.791Z,97281.56
2023-02-08T14:36:48.776Z,97289.19
2023-02-08T14:39:45.870Z,97283.03
2023-02-08T14:43:12.797Z,97287.75
2023-02-08T14:46:01.768Z,97289.94
2023-02-08T14:49:02.789Z,97294.56
2023-02-08T14:52:03.783Z,97304.28
2023-02-08T14:55:00.816Z,97310.06
2023-02-08T14:57:40.870Z,97306.81
2023-02-08T15:00:32.845Z,97298.13
2023-02-08T15:03:14.792Z,97308.72
2023-02-08T15:06:31.824Z,97306.56
2023-02-08T15:09:04.913Z,97305.94
2023-02-08T15:12:15.854Z,97305.31
2023-02-08T15:14:50.934Z,97318.19
2023-02-08T15:17:40.849Z,97312.00
2023-02-08T15:20:24.043Z,97313.41
2023-02-08T15:23:33.828Z,97314.88
2023-02-08T15:26:10.931Z,97322.28
2023-02-08T15:28:59.615Z,97321.97
2023-02-08T15:31:56.417Z,97321.66
2023-02-08T15:34:47.826Z,97329.63
2023-02-08T15:37:26.008Z,97337.50
2023-02-08T15:40:12.808Z,97334.22
2023-02-08T15:42:49.896Z,97333.91
2023-02-08T15:45:36.814Z,97345.22
2023-02-08T15:48:18.813Z,97339.00
2023-02-08T15:50:51.887Z,97339.22
2023-02-08T15:53:38.821Z,97333.50
2023-02-08T15:56:12.930Z,97342.06
2023-02-08T15:59:03.809Z,97342.53
2023-02-08T16:01:37.902Z,97338.25
2023-02-08T16:04:24.807Z,97335.63
2023-02-08T16:07:11.882Z,97338.69
2023-02-08T16:10:05.892Z,97332.38
2023-02-08T16:13:04.913Z,97337.16
2023-02-08T16:16:03.771Z,97336.81
2023-02-08T16:19:13.837Z,97337.38
2023-02-08T16:22:22.823Z,97346.06
2023-02-08T16:25:03.185Z,97346.34
2023-02-08T16:28:00.841Z,97352.78
2023-02-08T16:30:50.893Z,97347.44
2023-02-08T16:33:24.917Z,97351.97
2023-02-08T16:36:18.895Z,97349.91
2023-02-08T16:39:20.863Z,97367.69
2023-02-08T16:42:14.193Z,97358.13
2023-02-08T16:45:14.859Z,97362.00
2023-02-08T16:48:04.197Z,97365.78
2023-02-08T16:50:59.884Z,97362.59
2023-02-08T16:53:42.938Z,97362.38
2023-02-08T16:56:37.822Z,97360.28
2023-02-08T16:59:24.852Z,97358.06
2023-02-08T17:01:58.055Z,97360.34
2023-02-08T17:04:44.846Z,97359.75
2023-02-08T17:07:29.691Z,97353.41
2023-02-08T17:10:28.484Z,97353.47
2023-02-08T17:13:20.611Z,97357.75
2023-02-08T17:16:00.865Z,97359.78
2023-02-08T17:18:41.058Z,97353.56
2023-02-08T17:21:21.834Z,97346.44
2023-02-08T17:24:01.889Z,97347.09
2023-02-08T17:26:47.914Z,97349.13
2023-02-08T17:29:41.821Z,97354.50
2023-02-08T17:32:28.841Z,97353.00
2023-02-08T17:35:01.951Z,97344.91
2023-02-08T17:37:48.931Z,97347.19
2023-02-08T17:40:33.841Z,97353.41
2023-02-08T17:43:27.922Z,97349.47
2023-02-08T17:46:23.866Z,97359.81
2023-02-08T17:49:05.877Z,97358.69
2023-02-08T17:51:52.873Z,97363.56
2023-02-08T17:54:32.839Z,97362.47
2023-02-08T17:57:19.984Z,97367.09
2023-02-08T17:59:52.999Z,97369.44
2023-02-08T18:02:39.884Z,97367.44
2023-02-08T18:05:16.071Z,97369.47
2023-02-08T18:08:03.830Z,97365.72
2023-02-08T18:10:37.021Z,97367.22
2023-02-08T18:13:23.849Z,97369.34
2023-02-08T18:16:03.905Z,97367.25
2023-02-08T18:18:51.845Z,97371.84
2023-02-08T18:21:38.846Z,97368.22
2023-02-08T18:24:32.908Z,97371.19
2023-02-08T18:27:19.858Z,97373.06
2023-02-08T18:29:52.959Z,97372.69
2023-02-08T18:32:40.865Z,97377.94
2023-02-08T18:35:14.973Z,97375.28
2023-02-08T18:38:01.889Z,97378.41
2023-02-08T18:40:41.908Z,97377.28
2023-02-08T18:43:28.848Z,97370.16
2023-02-08T18:46:11.119Z,97373.00
2023-02-08T18:48:59.930Z,97375.88
2023-02-08T18:51:40.856Z,97368.88
2023-02-08T18:54:34.872Z,97364.00
2023-02-08T18:57:28.882Z,97366.56
2023-02-08T19:00:22.855Z,97362.84
2023-02-08T19:03:09.864Z,97369.31
2023-02-08T19:05:45.999Z,97369.06
2023-02-08T19:08:32.869Z,97367.28
2023-02-08T19:11:06.027Z,97371.00
2023-02-08T19:13:52.868Z,97374.38
2023-02-08T19:16:33.901Z,97376.59
2023-02-08T19:19:27.930Z,97378.94
2023-02-08T19:22:14.872Z,97377.53
2023-02-08T19:24:54.879Z,97375.69
2023-02-08T19:27:49.045Z,97376.75
2023-02-08T19:30:38.940Z,97374.63
2023-02-08T19:33:12.015Z,97372.63
2023-02-08T19:35:58.896Z,97376.44
2023-02-08T19:38:32.026Z,97374.91
2023-02-08T19:41:24.906Z,97380.38
2023-02-08T19:43:58.974Z,97376.75
2023-02-08T19:46:45.895Z,97375.91
2023-02-08T19:49:20.032Z,97378.75
2023-02-08T19:52:06.864Z,97368.41
2023-02-08T19:54:40.026Z,97367.75
2023-02-08T19:57:26.869Z,97362.22
2023-02-08T20:00:17.560Z,97366.81
2023-02-08T20:03:20.797Z,97371.06
2023-02-08T20:05:57.792Z,97367.16
2023-02-08T20:08:44.918Z,97366.75
2023-02-08T20:11:26.990Z,97368.97
2023-02-08T20:14:14.901Z,97370.78
2023-02-08T20:16:48.117Z,97370.09
2023-02-08T20:19:35.906Z,97365.22
2023-02-08T20:22:15.904Z,97371.50
2023-02-08T20:25:10.891Z,97367.88
2023-02-08T20:27:57.947Z,97370.69
2023-02-08T20:30:32.052Z,97367.03
2023-02-08T20:33:18.918Z,97366.00
2023-02-08T20:35:52.119Z,97371.59
2023-02-08T20:38:38.896Z,97367.22
2023-02-08T20:41:25.883Z,97364.72
2023-02-08T20:44:19.897Z,97364.03
2023-02-08T20:47:15.900Z,97359.63
2023-02-08T20:50:10.296Z,97362.59
2023-02-08T20:52:47.109Z,97363.91
2023-02-08T20:55:33.906Z,97364.75
2023-02-08T20:58:13.912Z,97364.34
2023-02-08T21:01:00.960Z,97364.94
2023-02-08T21:03:34.026Z,97358.84
2023-02-08T21:06:29.914Z,97359.41
2023-02-08T21:09:06.175Z,97350.22
2023-02-08T21:11:53.923Z,97350.81
2023-02-08T21:14:35.908Z,97354.19
2023-02-08T21:17:29.910Z,97358.88
2023-02-08T21:20:17.939Z,97353.06
2023-02-08T21:22:57.904Z,97356.00
2023-02-08T21:25:54.930Z,97350.00
2023-02-08T21:28:49.957Z,97355.13
2023-02-08T21:31:36.999Z,97353.69
2023-02-08T21:34:13.101Z,97347.44
2023-02-08T21:37:06.915Z,97348.75
2023-02-08T21:39:53.904Z,97350.81
2023-02-08T21:42:33.913Z,97342.19
2023-02-08T21:45:20.926Z,97343.38
2023-02-08T21:47:54.026Z,97333.03
2023-02-08T21:50:59.926Z,97341.94
2023-02-08T21:53:58.945Z,97338.44
2023-02-08T21:56:45.946Z,97342.50
2023-02-08T21:59:19.047Z,97331.91
2023-02-08T22:02:05.930Z,97328.81
2023-02-08T22:04:59.956Z,97335.56
2023-02-08T22:07:59.945Z,97337.44
2023-02-08T22:10:38.250Z,97337.72
2023-02-08T22:13:24.931Z,97341.38
2023-02-08T22:15:59.353Z,97339.91
2023-02-08T22:18:47.940Z,97335.69
2023-02-08T22:21:24.226Z,97333.47
2023-02-08T22:24:10.972Z,97333.19
2023-02-08T22:26:44.163Z,97329.13
2023-02-08T22:29:31.115Z,97323.88
2023-02-08T22:32:05.734Z,97322.84
2023-02-08T22:34:53.920Z,97314.16
2023-02-08T22:37:33.936Z,97310.38
2023-02-08T22:40:20.931Z,97318.22
2023-02-08T22:43:00.946Z,97315.44
2023-02-08T22:45:48.964Z,97317.91
2023-02-08T22:48:28.928Z,97309.78
2023-02-08T22:51:29.917Z,97311.97
2023-02-08T22:54:16.961Z,97308.31
2023-02-08T22:56:50.126Z,97300.44
2023-02-08T22:59:36.926Z,97304.94
2023-02-08T23:02:11.225Z,97301.16
2023-02-08T23:04:58.947Z,97291.84
2023-02-08T23:07:38.928Z,97288.16
2023-02-08T23:10:32.932Z,97288.59
2023-02-08T23:13:19.947Z,97287.56
2023-02-08T23:15:53.197Z,97278.69
2023-02-08T23:18:42.944Z,97275.06
2023-02-08T23:21:20.123Z,97277.81
2023-02-08T23:24:06.933Z,97269.34
2023-02-08T23:26:40.164Z,97270.38
2023-02-08T23:29:26.961Z,97267.19
2023-02-08T23:32:00.222Z,97265.28
2023-02-08T23:34:47.009Z,97265.16
2023-02-08T23:37:20.173Z,97265.41
2023-02-08T23:40:06.932Z,97257.25
2023-02-08T23:42:40.180Z,97253.16
2023-02-08T23:45:26.961Z,97255.16
2023-02-08T23:48:00.047Z,97255.03
2023-02-08T23:50:47.157Z,97253.56
2023-02-08T23:53:21.078Z,97245.53
2023-02-08T23:56:11.951Z,97241.88
2023-02-08T23:58:45.063Z,97243.50
